Time;durP1;ratioP1;P1;durP2;ratioP2;P2;SDS_P1;SDS_P2;PMS_P1;PMS_P2;Temp;Humidity;BMP_temperature;BMP_pressure;BME280_temperature;BME280_humidity;BME280_pressure;Samples;Min_cycle;Max_cycle;Signal;HPM_P1;HPM_P2
2021/06/26 00:02:19;;;;;;;17.30;13.00;;;13.50;99.90;;;;;;6249128;28;20557;-77
2021/06/26 00:05:20;;;;;;;17.23;11.48;;;13.50;99.90;;;;;;6249675;28;20151;-77
2021/06/26 00:08:26;;;;;;;15.88;12.27;;;13.40;99.90;;;;;;6248624;28;20079;-75
2021/06/26 00:11:28;;;;;;;16.88;12.80;;;13.40;99.90;;;;;;6248484;28;20503;-75
2021/06/26 00:14:29;;;;;;;16.05;12.93;;;13.40;99.90;;;;;;6248241;28;20124;-75
2021/06/26 00:17:31;;;;;;;15.57;12.88;;;13.30;99.90;;;;;;6248719;28;20118;-75
2021/06/26 00:20:33;;;;;;;22.52;13.23;;;13.30;99.90;;;;;;6247828;28;20088;-75
2021/06/26 00:23:36;;;;;;;15.43;12.32;;;13.30;99.90;;;;;;6248082;28;20128;-75
2021/06/26 00:26:38;;;;;;;16.88;13.15;;;13.20;99.90;;;;;;6248066;28;20071;-75
2021/06/26 00:29:40;;;;;;;15.48;11.68;;;13.20;99.90;;;;;;6255559;28;20076;-75
2021/06/26 00:32:42;;;;;;;16.10;12.00;;;13.20;99.90;;;;;;6273084;28;20179;-75
2021/06/26 00:35:44;;;;;;;13.25;11.95;;;13.10;99.90;;;;;;6272344;28;20068;-75
2021/06/26 00:38:47;;;;;;;14.10;12.20;;;13.10;99.90;;;;;;6272146;28;20068;-75
2021/06/26 00:41:49;;;;;;;14.52;12.38;;;13.10;99.90;;;;;;6272598;28;20146;-75
2021/06/26 00:44:51;;;;;;;12.55;11.25;;;13.10;99.90;;;;;;6272591;28;20053;-75
2021/06/26 00:47:53;;;;;;;14.20;12.70;;;13.10;99.90;;;;;;6272395;28;20060;-75
2021/06/26 00:50:55;;;;;;;18.83;14.10;;;13.10;99.90;;;;;;6271956;28;20565;-75
2021/06/26 00:53:59;;;;;;;14.07;12.60;;;13.00;99.90;;;;;;6240208;28;20088;-75
2021/06/26 00:57:02;;;;;;;13.65;11.63;;;13.00;99.90;;;;;;6221234;28;20211;-75
2021/06/26 01:00:06;;;;;;;14.05;11.10;;;12.90;99.90;;;;;;6247030;28;20187;-75
2021/06/26 01:03:08;;;;;;;18.08;13.30;;;12.90;99.90;;;;;;6246628;28;20047;-75
2021/06/26 01:06:11;;;;;;;31.55;12.70;;;12.80;99.90;;;;;;6247004;28;20072;-75
2021/06/26 01:09:14;;;;;;;15.27;12.35;;;12.90;99.90;;;;;;6247210;28;20064;-75
2021/06/26 01:12:16;;;;;;;23.70;12.07;;;12.80;99.90;;;;;;6247088;28;20127;-75
2021/06/26 01:15:18;;;;;;;14.35;12.10;;;12.80;99.90;;;;;;6247151;28;20046;-75
2021/06/26 01:18:20;;;;;;;20.27;11.65;;;12.80;99.90;;;;;;6246839;28;20448;-75
2021/06/26 01:21:23;;;;;;;11.95;10.70;;;12.80;99.90;;;;;;6246910;28;20077;-75
2021/06/26 01:24:26;;;;;;;18.40;12.77;;;12.70;99.90;;;;;;6246466;28;20050;-75
2021/06/26 01:27:28;;;;;;;13.93;12.20;;;12.70;99.90;;;;;;6246851;28;20140;-75
2021/06/26 01:30:32;;;;;;;14.85;11.70;;;12.70;99.90;;;;;;6253395;28;20060;-75
2021/06/26 01:33:34;;;;;;;18.67;14.13;;;12.70;99.90;;;;;;6270631;28;20049;-75
2021/06/26 01:36:36;;;;;;;15.07;11.57;;;12.60;99.90;;;;;;6271052;28;20096;-75
2021/06/26 01:39:39;;;;;;;16.00;12.98;;;12.60;99.90;;;;;;6270728;28;20505;-75
2021/06/26 01:42:41;;;;;;;14.20;11.80;;;12.60;99.90;;;;;;6271327;28;20238;-75
2021/06/26 01:45:43;;;;;;;13.25;11.93;;;12.60;99.90;;;;;;6271344;28;20118;-75
2021/06/26 01:48:45;;;;;;;14.23;12.10;;;12.50;99.90;;;;;;6270430;28;20098;-75
2021/06/26 01:51:46;;;;;;;13.95;11.27;;;12.50;99.90;;;;;;6270576;28;20215;-75
2021/06/26 01:54:50;;;;;;;14.90;12.38;;;12.40;99.90;;;;;;6263946;28;20072;-75
2021/06/26 01:57:52;;;;;;;13.48;11.98;;;12.40;99.90;;;;;;6245991;28;20503;-75
2021/06/26 02:00:54;;;;;;;16.40;11.48;;;12.40;99.90;;;;;;6246324;28;20583;-75
2021/06/26 02:03:55;;;;;;;14.25;12.40;;;12.40;99.90;;;;;;6246046;28;20108;-75
2021/06/26 02:06:57;;;;;;;14.07;11.70;;;12.30;99.90;;;;;;6245855;28;20091;-75
2021/06/26 02:10:01;;;;;;;16.58;11.35;;;12.20;99.90;;;;;;6245460;28;20077;-75
2021/06/26 02:13:03;;;;;;;11.90;10.70;;;12.20;99.90;;;;;;6246125;28;20107;-75
2021/06/26 02:16:05;;;;;;;14.05;11.93;;;12.30;99.90;;;;;;6245541;28;20049;-75
2021/06/26 02:19:07;;;;;;;12.80;11.13;;;12.30;99.90;;;;;;6246511;28;20120;-75
2021/06/26 02:22:09;;;;;;;16.13;10.93;;;12.20;99.90;;;;;;6245780;28;20068;-75
2021/06/26 02:25:14;;;;;;;12.85;11.55;;;12.20;99.90;;;;;;6246272;28;20140;-75
2021/06/26 02:28:16;;;;;;;12.70;10.38;;;12.20;99.90;;;;;;6245463;28;20069;-75
2021/06/26 02:31:17;;;;;;;17.40;11.55;;;12.20;99.90;;;;;;6249622;28;20411;-75
2021/06/26 02:34:19;;;;;;;13.60;9.80;;;12.10;99.90;;;;;;6266845;28;20053;-75
2021/06/26 02:37:23;;;;;;;16.33;11.93;;;12.10;99.90;;;;;;6270438;28;20049;-75
2021/06/26 02:40:27;;;;;;;19.10;10.90;;;12.00;99.90;;;;;;6269911;28;20052;-75
2021/06/26 02:43:29;;;;;;;15.75;10.77;;;12.00;99.90;;;;;;6270097;28;20180;-75
2021/06/26 02:46:31;;;;;;;14.18;10.93;;;11.90;99.90;;;;;;6270015;28;20167;-75
2021/06/26 02:49:33;;;;;;;13.75;11.30;;;11.90;99.90;;;;;;6270068;28;20187;-75
2021/06/26 02:52:34;;;;;;;13.38;10.32;;;11.90;99.90;;;;;;6269843;28;20091;-75
2021/06/26 02:55:38;;;;;;;14.82;10.90;;;11.90;99.90;;;;;;6269746;28;20173;-74
2021/06/26 02:58:40;;;;;;;13.07;11.68;;;11.90;99.90;;;;;;6269395;28;20048;-75
2021/06/26 03:01:42;;;;;;;13.80;11.85;;;11.90;99.90;;;;;;6270181;28;20052;-75
2021/06/26 03:04:44;;;;;;;13.35;9.63;;;11.90;99.90;;;;;;6253011;28;20081;-75
2021/06/26 03:07:50;;;;;;;16.00;9.93;;;11.90;99.90;;;;;;6245005;28;20091;-75
2021/06/26 03:10:53;;;;;;;11.75;10.23;;;12.00;99.90;;;;;;6242905;28;20049;-75
2021/06/26 03:13:54;;;;;;;14.73;9.68;;;12.10;99.90;;;;;;6246735;28;20088;-75
2021/06/26 03:16:56;;;;;;;14.13;10.88;;;12.10;99.90;;;;;;6246127;28;20081;-79
2021/06/26 03:19:58;;;;;;;12.02;10.82;;;12.20;99.90;;;;;;6251771;28;20049;-78
2021/06/26 03:23:00;;;;;;;12.32;10.52;;;12.40;99.90;;;;;;6254084;28;20484;-77
2021/06/26 03:26:04;;;;;;;10.20;8.15;;;12.40;99.90;;;;;;6258897;28;20049;-77
2021/06/26 03:29:06;;;;;;;13.43;11.00;;;12.40;99.90;;;;;;6253719;28;20053;-77
2021/06/26 03:32:08;;;;;;;11.65;10.10;;;12.40;99.90;;;;;;6250981;28;20503;-78
2021/06/26 03:35:11;;;;;;;12.18;10.98;;;12.40;99.90;;;;;;6274157;28;20147;-77
2021/06/26 03:38:13;;;;;;;15.30;9.60;;;12.50;99.90;;;;;;6276788;28;20045;-77
2021/06/26 03:41:16;;;;;;;14.40;9.90;;;12.50;99.90;;;;;;6275484;28;20148;-77
2021/06/26 03:44:18;;;;;;;14.23;10.00;;;12.60;99.90;;;;;;6276930;28;20110;-77
2021/06/26 03:47:20;;;;;;;17.58;10.15;;;12.60;99.90;;;;;;6275899;28;20056;-78
2021/06/26 03:50:22;;;;;;;11.93;10.73;;;12.60;99.90;;;;;;6276864;28;20447;-77
2021/06/26 03:53:24;;;;;;;16.55;10.68;;;12.60;99.90;;;;;;6275543;28;20053;-77
2021/06/26 03:56:27;;;;;;;10.63;9.52;;;12.70;99.90;;;;;;6274818;28;20123;-77
2021/06/26 03:59:29;;;;;;;10.93;9.82;;;12.70;99.90;;;;;;6275947;28;20064;-78
2021/06/26 04:02:30;;;;;;;10.40;9.30;;;12.70;99.90;;;;;;6275968;28;20048;-78
2021/06/26 04:05:32;;;;;;;14.95;11.07;;;12.80;99.90;;;;;;6277678;28;20102;-76
2021/06/26 04:08:34;;;;;;;13.90;10.25;;;12.90;99.90;;;;;;6274064;28;20083;-77
2021/06/26 04:11:37;;;;;;;12.13;10.02;;;13.00;99.90;;;;;;6274746;28;20128;-77
2021/06/26 04:14:39;;;;;;;10.55;9.43;;;13.10;99.90;;;;;;6274860;28;20121;-77
2021/06/26 04:17:41;;;;;;;12.80;9.90;;;13.20;99.90;;;;;;6274939;28;20084;-78
2021/06/26 04:20:43;;;;;;;10.55;9.35;;;13.20;99.90;;;;;;6275122;28;20083;-77
2021/06/26 04:23:45;;;;;;;9.52;8.50;;;13.20;99.90;;;;;;6276742;28;20045;-76
2021/06/26 04:26:48;;;;;;;11.07;9.95;;;13.20;99.90;;;;;;6276391;28;20091;-78
2021/06/26 04:29:50;;;;;;;11.00;9.88;;;13.30;99.90;;;;;;6274690;28;20053;-77
2021/06/26 04:32:52;;;;;;;19.38;13.30;;;13.50;99.90;;;;;;6277128;28;20069;-78
2021/06/26 04:35:54;;;;;;;10.68;9.57;;;13.60;99.90;;;;;;6270349;28;20095;-77
2021/06/26 04:38:55;;;;;;;10.55;9.48;;;13.60;99.90;;;;;;6275790;28;20061;-79
2021/06/26 04:41:59;;;;;;;9.13;8.23;;;13.80;99.90;;;;;;6273277;28;20483;-77
2021/06/26 04:45:00;;;;;;;11.57;7.75;;;13.90;99.90;;;;;;6275136;28;20057;-77
2021/06/26 04:48:02;;;;;;;10.32;9.32;;;14.00;99.90;;;;;;6273349;28;20053;-77
2021/06/26 04:51:05;;;;;;;10.05;9.15;;;14.10;99.90;;;;;;6273778;28;20550;-77
2021/06/26 04:54:06;;;;;;;10.15;9.10;;;14.20;99.90;;;;;;6273905;28;20115;-77
2021/06/26 04:57:10;;;;;;;9.20;8.18;;;14.30;99.90;;;;;;6272165;28;20080;-77
2021/06/26 05:00:13;;;;;;;12.85;9.63;;;14.40;99.90;;;;;;6272899;28;20179;-75
2021/06/26 05:03:14;;;;;;;9.60;8.55;;;14.60;99.90;;;;;;6271629;28;20514;-75
2021/06/26 05:06:17;;;;;;;8.90;8.05;;;14.80;99.90;;;;;;6271812;28;20091;-75
2021/06/26 05:09:18;;;;;;;9.90;8.90;;;15.00;99.90;;;;;;6272061;28;20420;-75
2021/06/26 05:12:22;;;;;;;9.82;8.27;;;15.10;99.90;;;;;;6271560;28;20124;-75
2021/06/26 05:15:23;;;;;;;10.65;8.75;;;15.20;99.90;;;;;;6271651;28;20122;-75
2021/06/26 05:18:28;;;;;;;12.70;9.30;;;15.50;99.90;;;;;;6271407;28;20126;-75
2021/06/26 05:21:29;;;;;;;14.70;9.18;;;15.90;99.90;;;;;;6271868;28;20051;-75
2021/06/26 05:24:31;;;;;;;9.63;8.68;;;16.10;99.90;;;;;;6271208;28;20128;-75
2021/06/26 05:27:34;;;;;;;13.18;9.85;;;16.30;99.90;;;;;;6271611;28;20098;-76
2021/06/26 05:30:37;;;;;;;11.68;10.18;;;16.50;99.90;;;;;;6263528;28;20518;-74
2021/06/26 05:33:40;;;;;;;8.95;8.15;;;16.80;99.90;;;;;;6248624;28;20107;-75
2021/06/26 05:36:41;;;;;;;14.25;8.20;;;17.20;99.90;;;;;;6265307;28;20440;-75
2021/06/26 05:39:43;;;;;;;9.95;8.90;;;17.90;99.90;;;;;;6270879;28;20045;-75
2021/06/26 05:42:46;;;;;;;13.45;10.18;;;18.40;99.90;;;;;;6271583;28;20140;-75
2021/06/26 05:45:48;;;;;;;11.75;8.60;;;18.70;99.90;;;;;;6271382;28;20072;-76
2021/06/26 05:48:50;;;;;;;9.57;8.32;;;18.80;99.90;;;;;;6270764;28;20135;-75
2021/06/26 05:51:52;;;;;;;11.98;8.07;;;19.00;99.90;;;;;;6271665;28;20107;-75
2021/06/26 05:54:54;;;;;;;11.63;8.43;;;19.20;99.90;;;;;;6271534;28;20083;-75
2021/06/26 05:57:57;;;;;;;9.88;8.77;;;19.40;99.40;;;;;;6271652;28;20140;-75
2021/06/26 06:00:58;;;;;;;11.20;8.05;;;19.50;98.50;;;;;;6271190;28;20788;-75
2021/06/26 06:04:00;;;;;;;8.80;8.00;;;19.60;98.10;;;;;;6253558;28;20042;-75
2021/06/26 06:07:02;;;;;;;8.15;7.35;;;19.50;98.00;;;;;;6243961;28;20073;-76
2021/06/26 06:10:05;;;;;;;10.40;7.05;;;19.40;98.40;;;;;;6246011;28;20060;-75
2021/06/26 06:13:13;;;;;;;8.02;7.32;;;19.50;98.40;;;;;;6246854;28;20133;-75
2021/06/26 06:16:14;;;;;;;13.43;8.32;;;19.50;98.40;;;;;;6246599;28;20052;-75
2021/06/26 06:19:16;;;;;;;10.77;7.78;;;19.70;98.40;;;;;;6246554;28;20124;-75
2021/06/26 06:22:18;;;;;;;10.60;7.90;;;19.70;97.90;;;;;;6245838;28;20517;-74
2021/06/26 06:25:20;;;;;;;10.88;8.15;;;19.70;98.20;;;;;;6246724;28;20096;-75
2021/06/26 06:28:23;;;;;;;12.43;7.82;;;19.70;97.90;;;;;;6245986;28;20045;-75
2021/06/26 06:31:25;;;;;;;13.75;7.57;;;19.60;98.40;;;;;;6245737;28;20056;-75
2021/06/26 06:34:27;;;;;;;9.02;7.03;;;19.50;98.60;;;;;;6241981;28;20474;-75
2021/06/26 06:37:29;;;;;;;12.77;7.60;;;19.50;98.90;;;;;;6240857;28;20077;-76
2021/06/26 06:40:31;;;;;;;7.88;7.03;;;19.50;98.60;;;;;;6246079;28;20046;-75
2021/06/26 06:43:34;;;;;;;9.48;7.03;;;19.40;98.80;;;;;;6245956;28;20199;-74
2021/06/26 06:46:36;;;;;;;10.82;7.38;;;19.40;98.70;;;;;;6245778;28;20111;-75
2021/06/26 06:49:37;;;;;;;9.93;7.15;;;19.40;98.60;;;;;;6246389;28;20084;-75
2021/06/26 06:52:39;;;;;;;7.38;6.68;;;19.60;98.30;;;;;;6245852;28;20565;-75
2021/06/26 06:55:41;;;;;;;13.40;6.57;;;19.60;98.00;;;;;;6245812;28;20069;-75
2021/06/26 06:58:44;;;;;;;10.45;8.57;;;19.70;97.80;;;;;;6245602;28;20037;-75
2021/06/26 07:01:46;;;;;;;7.70;6.88;;;19.80;97.40;;;;;;6248996;28;20136;-75
2021/06/26 07:04:48;;;;;;;14.40;7.55;;;19.90;97.00;;;;;;6251252;28;20120;-75
2021/06/26 07:07:50;;;;;;;8.27;6.60;;;20.10;96.80;;;;;;6250169;28;20119;-75
2021/06/26 07:10:52;;;;;;;8.60;6.68;;;20.10;95.90;;;;;;6250763;28;20149;-75
2021/06/26 07:13:55;;;;;;;6.45;5.85;;;20.20;95.90;;;;;;6250768;28;20052;-75
2021/06/26 07:16:57;;;;;;;7.65;6.82;;;20.30;95.40;;;;;;6250868;28;20618;-75
2021/06/26 07:19:59;;;;;;;7.85;6.15;;;20.40;94.90;;;;;;6250001;28;20045;-75
2021/06/26 07:23:00;;;;;;;6.80;6.10;;;20.40;94.60;;;;;;6250237;28;20133;-74
2021/06/26 07:26:02;;;;;;;7.18;6.47;;;20.40;94.00;;;;;;6250365;28;20081;-75
2021/06/26 07:29:06;;;;;;;6.80;6.10;;;20.40;92.80;;;;;;6250161;28;20081;-75
2021/06/26 07:32:08;;;;;;;7.40;6.70;;;20.30;92.80;;;;;;6250353;28;20088;-75
2021/06/26 07:35:10;;;;;;;8.40;6.60;;;20.30;92.90;;;;;;6249490;28;20124;-75
2021/06/26 07:38:12;;;;;;;6.78;6.15;;;20.30;92.50;;;;;;6247226;28;20124;-74
2021/06/26 07:41:14;;;;;;;7.28;6.13;;;20.40;93.00;;;;;;6249701;28;20561;-75
2021/06/26 07:44:18;;;;;;;8.63;7.32;;;20.60;92.60;;;;;;6249761;28;20046;-75
2021/06/26 07:47:20;;;;;;;22.13;7.45;;;20.80;92.40;;;;;;6249505;28;20502;-75
2021/06/26 07:50:22;;;;;;;7.22;6.53;;;21.00;91.90;;;;;;6249682;28;20143;-74
2021/06/26 07:53:24;;;;;;;7.68;6.90;;;21.10;91.80;;;;;;6249412;28;20135;-74
2021/06/26 07:56:29;;;;;;;11.35;6.55;;;21.10;91.70;;;;;;6249434;28;20439;-75
2021/06/26 07:59:32;;;;;;;8.30;6.70;;;21.20;91.20;;;;;;6249862;28;20071;-74
2021/06/26 08:02:35;;;;;;;8.98;6.55;;;21.40;91.30;;;;;;6249632;28;20041;-75
2021/06/26 08:05:37;;;;;;;9.48;6.70;;;21.50;91.30;;;;;;6250025;28;20104;-73
2021/06/26 08:08:38;;;;;;;7.00;6.30;;;21.50;90.40;;;;;;6248970;28;20053;-74
2021/06/26 08:11:40;;;;;;;7.82;6.32;;;21.60;91.00;;;;;;6248280;28;20065;-75
2021/06/26 08:14:44;;;;;;;8.93;6.90;;;21.80;90.10;;;;;;6248714;28;20122;-75
2021/06/26 08:17:46;;;;;;;12.25;6.90;;;22.00;89.40;;;;;;6248609;28;20192;-75
2021/06/26 08:20:48;;;;;;;11.18;6.82;;;22.20;87.50;;;;;;6248919;28;20151;-75
2021/06/26 08:23:50;;;;;;;7.03;5.88;;;22.40;84.80;;;;;;6249145;28;20119;-75
2021/06/26 08:26:52;;;;;;;6.82;6.13;;;22.70;83.30;;;;;;6248704;28;20519;-74
2021/06/26 08:29:55;;;;;;;8.13;6.55;;;22.90;80.90;;;;;;6248604;28;20191;-74
2021/06/26 08:32:57;;;;;;;8.02;6.57;;;23.10;78.30;;;;;;6249355;28;20140;-74
2021/06/26 08:35:59;;;;;;;6.65;6.05;;;23.50;77.70;;;;;;6248757;28;20038;-74
2021/06/26 08:39:01;;;;;;;8.50;6.65;;;23.80;74.30;;;;;;6235731;28;20168;-74
2021/06/26 08:42:04;;;;;;;9.52;6.93;;;23.80;73.10;;;;;;6248688;28;20079;-74
2021/06/26 08:45:09;;;;;;;10.25;6.57;;;23.70;72.30;;;;;;6249040;28;20095;-74
2021/06/26 08:48:11;;;;;;;6.43;5.93;;;24.00;73.40;;;;;;6248253;28;20052;-74
2021/06/26 08:51:13;;;;;;;7.03;6.18;;;24.40;71.00;;;;;;6248266;28;20073;-75
2021/06/26 08:54:17;;;;;;;6.38;5.78;;;24.60;68.60;;;;;;6248205;28;20057;-75
2021/06/26 08:57:27;;;;;;;6.95;6.25;;;25.10;68.70;;;;;;6248360;28;20063;-75
2021/06/26 09:00:31;;;;;;;10.65;6.50;;;26.30;65.90;;;;;;6247940;28;20053;-74
2021/06/26 09:03:32;;;;;;;6.38;5.75;;;27.70;61.70;;;;;;6247557;28;20080;-75
2021/06/26 09:06:46;;;;;;;7.25;6.03;;;28.80;57.70;;;;;;6247920;28;20063;-75
2021/06/26 09:09:48;;;;;;;8.20;6.00;;;29.70;55.70;;;;;;6247620;28;20049;-74
2021/06/26 09:12:52;;;;;;;8.38;6.30;;;30.40;53.30;;;;;;6247958;28;20128;-75
2021/06/26 09:16:06;;;;;;;6.57;5.97;;;30.80;51.50;;;;;;6247878;28;20068;-75
2021/06/26 09:19:12;;;;;;;7.38;5.75;;;31.00;50.50;;;;;;6247219;28;20427;-75
2021/06/26 09:22:14;;;;;;;7.50;6.07;;;30.80;50.30;;;;;;6247735;28;20530;-75
2021/06/26 09:25:28;;;;;;;7.25;5.70;;;29.60;51.30;;;;;;6247687;28;20053;-74
2021/06/26 09:28:30;;;;;;;10.45;6.47;;;28.50;54.70;;;;;;6247468;28;20724;-76
2021/06/26 09:31:33;;;;;;;9.35;6.00;;;27.80;56.20;;;;;;6223987;28;20128;-75
2021/06/26 09:34:40;;;;;;;6.20;5.50;;;27.40;58.00;;;;;;6222740;28;20456;-74
2021/06/26 09:37:42;;;;;;;7.03;5.65;;;27.20;59.00;;;;;;6227328;28;20107;-74
2021/06/26 09:40:43;;;;;;;6.97;5.43;;;27.20;58.30;;;;;;6245818;28;20584;-75
2021/06/26 09:43:45;;;;;;;8.65;7.00;;;27.20;57.50;;;;;;6247352;28;20045;-74
2021/06/26 09:46:51;;;;;;;8.45;6.88;;;26.90;57.20;;;;;;6247152;28;20107;-74
2021/06/26 09:49:53;;;;;;;9.85;5.97;;;26.50;56.80;;;;;;6246756;28;20064;-75
2021/06/26 09:52:57;;;;;;;7.32;5.63;;;26.20;58.80;;;;;;6247488;28;20049;-75
2021/06/26 09:55:59;;;;;;;6.60;5.72;;;26.30;59.90;;;;;;6246967;28;20135;-75
2021/06/26 09:59:01;;;;;;;6.60;5.88;;;26.50;59.70;;;;;;6246377;28;20076;-75
2021/06/26 10:02:04;;;;;;;6.85;6.20;;;26.50;57.60;;;;;;6246793;28;20140;-73
2021/06/26 10:05:07;;;;;;;5.57;5.07;;;26.40;58.10;;;;;;6246957;28;20050;-74
2021/06/26 10:08:10;;;;;;;6.43;5.93;;;26.30;57.90;;;;;;6246685;28;20038;-74
2021/06/26 10:11:12;;;;;;;7.03;6.07;;;26.30;58.50;;;;;;6246488;28;20053;-75
2021/06/26 10:14:15;;;;;;;6.28;5.68;;;26.60;57.60;;;;;;6246983;28;20095;-75
2021/06/26 10:17:18;;;;;;;8.20;5.72;;;27.10;57.00;;;;;;6246981;28;20071;-75
2021/06/26 10:20:23;;;;;;;6.68;5.28;;;27.50;54.90;;;;;;6225014;28;20538;-74
2021/06/26 10:23:32;;;;;;;7.05;6.30;;;27.70;55.80;;;;;;6222190;28;20050;-75
2021/06/26 10:26:36;;;;;;;5.88;5.28;;;27.80;55.40;;;;;;6221794;28;20096;-75
2021/06/26 10:29:38;;;;;;;6.03;5.32;;;27.90;55.10;;;;;;6221655;28;20050;-74
2021/06/26 10:32:51;;;;;;;6.25;5.75;;;27.70;53.50;;;;;;6222054;28;20176;-75
2021/06/26 10:35:56;;;;;;;9.48;5.05;;;27.50;54.70;;;;;;6226059;28;20755;-74
2021/06/26 10:38:58;;;;;;;9.07;5.70;;;27.70;55.90;;;;;;6231016;28;20069;-74
2021/06/26 10:42:02;;;;;;;7.55;5.00;;;27.50;55.50;;;;;;6253186;28;20139;-75
2021/06/26 10:45:06;;;;;;;6.63;5.35;;;27.20;56.00;;;;;;6254861;28;20450;-74
2021/06/26 10:48:20;;;;;;;5.80;5.30;;;27.00;55.10;;;;;;6253869;28;20133;-74
2021/06/26 10:51:31;;;;;;;7.13;5.70;;;27.20;55.60;;;;;;6254540;28;20049;-75
2021/06/26 10:54:33;;;;;;;5.53;4.20;;;27.40;54.80;;;;;;6253946;28;20523;-74
2021/06/26 10:57:46;;;;;;;5.80;5.32;;;27.40;52.20;;;;;;6254288;28;20427;-75
2021/06/26 11:00:48;;;;;;;6.25;5.72;;;27.10;53.00;;;;;;6253881;28;20076;-75
2021/06/26 11:03:53;;;;;;;4.63;4.25;;;26.90;53.70;;;;;;6254156;28;20072;-75
2021/06/26 11:07:05;;;;;;;5.65;5.10;;;26.70;55.50;;;;;;6254270;28;20123;-75
2021/06/26 11:10:10;;;;;;;7.43;4.47;;;27.00;55.60;;;;;;6254056;28;20073;-74
2021/06/26 11:13:18;;;;;;;5.70;5.20;;;27.50;55.50;;;;;;6254476;28;20049;-74
2021/06/26 11:16:20;;;;;;;5.20;4.57;;;28.10;54.10;;;;;;6253891;28;20410;-73
2021/06/26 11:19:31;;;;;;;5.20;4.80;;;28.50;53.40;;;;;;6253778;28;20168;-75
2021/06/26 11:22:33;;;;;;;5.88;5.38;;;29.00;53.40;;;;;;6253846;28;20108;-75
2021/06/26 11:25:35;;;;;;;4.43;4.03;;;29.30;51.40;;;;;;6253879;28;20506;-75
2021/06/26 11:28:42;;;;;;;6.35;4.80;;;29.40;50.90;;;;;;6253915;28;20127;-75
2021/06/26 11:31:44;;;;;;;6.85;4.53;;;29.50;50.50;;;;;;6254313;28;20048;-74
2021/06/26 11:34:53;;;;;;;6.63;4.82;;;29.20;51.80;;;;;;6253073;28;20478;-75
2021/06/26 11:37:55;;;;;;;5.18;4.55;;;29.10;50.40;;;;;;6253495;28;20518;-75
2021/06/26 11:41:04;;;;;;;4.78;4.38;;;28.80;52.60;;;;;;6236511;28;20164;-75
2021/06/26 11:44:06;;;;;;;4.88;3.85;;;28.90;52.50;;;;;;6228895;28;20092;-75
2021/06/26 11:47:10;;;;;;;4.72;4.32;;;29.20;51.30;;;;;;6226921;28;20195;-74
2021/06/26 11:50:18;;;;;;;5.85;4.18;;;29.60;49.60;;;;;;6225536;28;20091;-74
2021/06/26 11:53:22;;;;;;;4.45;4.05;;;29.30;50.80;;;;;;6226208;28;20132;-74
2021/06/26 11:56:24;;;;;;;5.57;5.07;;;29.20;49.60;;;;;;6224580;28;20050;-74
2021/06/26 11:59:30;;;;;;;5.40;4.53;;;28.90;49.80;;;;;;6224923;28;20084;-74
2021/06/26 12:02:33;;;;;;;4.43;4.00;;;28.80;50.50;;;;;;6224857;28;20116;-74
2021/06/26 12:05:36;;;;;;;6.43;4.65;;;28.90;51.70;;;;;;6225259;28;20054;-75
2021/06/26 12:08:42;;;;;;;4.95;4.55;;;28.90;52.00;;;;;;6224649;28;20539;-74
2021/06/26 12:11:44;;;;;;;6.82;6.32;;;28.80;51.60;;;;;;6224381;28;20053;-74
2021/06/26 12:14:48;;;;;;;5.30;4.43;;;28.50;50.60;;;;;;6244295;28;20116;-74
2021/06/26 12:18:00;;;;;;;5.35;4.60;;;28.10;51.50;;;;;;6249139;28;20126;-75
2021/06/26 12:21:10;;;;;;;6.28;4.80;;;27.70;52.50;;;;;;6249335;28;20053;-74
2021/06/26 12:24:24;;;;;;;5.03;4.63;;;27.50;53.60;;;;;;6249164;28;20129;-74
2021/06/26 12:27:26;;;;;;;6.25;4.28;;;27.60;53.30;;;;;;6249148;28;20124;-75
2021/06/26 12:30:28;;;;;;;6.22;5.00;;;27.90;51.70;;;;;;6248997;28;20132;-75
2021/06/26 12:33:29;;;;;;;4.03;3.65;;;27.60;51.00;;;;;;6247674;28;20080;-74
2021/06/26 12:36:33;;;;;;;5.90;4.45;;;27.30;52.20;;;;;;6248499;28;20038;-74
2021/06/26 12:39:35;;;;;;;5.00;3.90;;;27.30;52.50;;;;;;6248705;28;20045;-75
2021/06/26 12:42:39;;;;;;;6.47;4.70;;;27.30;52.80;;;;;;6247110;28;20124;-74
2021/06/26 12:45:43;;;;;;;5.15;4.22;;;27.40;53.00;;;;;;6249058;28;20109;-74
2021/06/26 12:48:47;;;;;;;4.57;4.20;;;27.60;53.20;;;;;;6225167;28;20054;-75
2021/06/26 12:51:51;;;;;;;5.70;5.20;;;27.60;53.00;;;;;;6224434;28;20508;-74
2021/06/26 12:54:54;;;;;;;4.30;3.90;;;27.80;53.40;;;;;;6223694;28;20045;-75
2021/06/26 12:57:58;;;;;;;5.43;4.93;;;28.20;52.40;;;;;;6226059;28;20147;-74
2021/06/26 13:01:00;;;;;;;5.55;4.90;;;28.50;51.30;;;;;;6225818;28;20061;-74
2021/06/26 13:04:02;;;;;;;5.35;4.13;;;28.20;51.10;;;;;;6226459;28;20185;-73
2021/06/26 13:07:06;;;;;;;4.82;4.25;;;27.80;52.80;;;;;;6224225;28;20415;-75
2021/06/26 13:10:09;;;;;;;4.90;3.97;;;27.70;53.40;;;;;;6222603;28;20057;-74
2021/06/26 13:13:10;;;;;;;4.53;4.13;;;27.50;53.40;;;;;;6223636;28;20096;-75
2021/06/26 13:16:12;;;;;;;5.22;4.10;;;27.40;53.30;;;;;;6242837;28;20671;-75
2021/06/26 13:19:15;;;;;;;6.85;3.90;;;27.20;53.80;;;;;;6235477;28;20518;-75
2021/06/26 13:22:20;;;;;;;4.35;3.97;;;27.00;52.70;;;;;;6227611;28;20587;-75
2021/06/26 13:25:22;;;;;;;6.25;4.53;;;26.70;53.40;;;;;;6247967;28;20065;-75
2021/06/26 13:28:23;;;;;;;4.90;4.50;;;26.70;55.10;;;;;;6247400;28;20073;-75
2021/06/26 13:31:25;;;;;;;5.15;4.68;;;26.70;54.40;;;;;;6233600;28;20053;-75
2021/06/26 13:34:27;;;;;;;5.00;4.47;;;26.70;54.20;;;;;;6223171;28;20187;-75
2021/06/26 13:37:31;;;;;;;6.35;4.75;;;26.60;55.40;;;;;;6222995;28;20081;-75
2021/06/26 13:40:33;;;;;;;4.93;4.18;;;26.50;55.20;;;;;;6245270;28;20067;-75
2021/06/26 13:43:35;;;;;;;4.45;4.05;;;26.50;55.90;;;;;;6235824;28;20036;-74
2021/06/26 13:46:36;;;;;;;4.35;3.95;;;26.70;55.40;;;;;;6271639;28;20105;-76
2021/06/26 13:49:38;;;;;;;6.18;4.28;;;27.00;55.80;;;;;;6271439;28;20566;-74
2021/06/26 13:52:41;;;;;;;4.70;4.30;;;27.20;55.00;;;;;;6271698;28;20454;-74
2021/06/26 13:55:50;;;;;;;10.18;5.07;;;27.30;55.60;;;;;;6271546;28;20514;-75
2021/06/26 13:58:52;;;;;;;6.82;4.78;;;27.30;54.90;;;;;;6271678;28;20047;-74
2021/06/26 14:01:54;;;;;;;6.38;4.03;;;27.30;53.60;;;;;;6271243;28;20509;-74
2021/06/26 14:04:56;;;;;;;4.68;4.30;;;27.40;53.20;;;;;;6271769;28;20080;-74
2021/06/26 14:07:59;;;;;;;4.35;3.95;;;27.50;53.60;;;;;;6251999;28;20045;-75
2021/06/26 14:11:01;;;;;;;5.20;4.70;;;27.40;53.10;;;;;;6255793;28;20186;-75
2021/06/26 14:14:03;;;;;;;5.47;4.22;;;27.40;52.30;;;;;;6257890;28;20136;-74
2021/06/26 14:17:06;;;;;;;5.40;4.38;;;27.30;53.70;;;;;;6246576;28;20175;-74
2021/06/26 14:20:09;;;;;;;3.90;3.50;;;27.40;53.90;;;;;;6245791;28;20574;-75
2021/06/26 14:23:12;;;;;;;4.88;4.25;;;27.50;53.60;;;;;;6246011;28;20080;-74
2021/06/26 14:26:15;;;;;;;4.13;3.72;;;27.50;52.40;;;;;;6246132;28;20046;-74
2021/06/26 14:29:16;;;;;;;4.47;3.97;;;27.50;52.30;;;;;;6246360;28;20049;-74
2021/06/26 14:32:18;;;;;;;5.38;4.18;;;27.30;53.00;;;;;;6245986;28;20084;-74
2021/06/26 14:35:20;;;;;;;5.28;4.20;;;27.60;53.90;;;;;;6246130;28;20511;-74
2021/06/26 14:38:23;;;;;;;3.38;3.17;;;27.60;51.20;;;;;;6246005;28;20518;-74
2021/06/26 14:41:25;;;;;;;3.90;3.60;;;27.30;52.50;;;;;;6246380;28;20458;-74
2021/06/26 14:44:27;;;;;;;3.80;3.50;;;27.10;52.60;;;;;;6244182;28;20069;-74
2021/06/26 14:47:29;;;;;;;4.15;3.75;;;27.00;54.20;;;;;;6246123;28;20060;-74
2021/06/26 14:50:31;;;;;;;4.45;4.15;;;27.10;53.40;;;;;;6245407;28;20128;-74
2021/06/26 14:53:36;;;;;;;4.47;3.50;;;27.20;52.80;;;;;;6246121;28;20403;-74
2021/06/26 14:56:38;;;;;;;5.40;3.85;;;27.30;52.70;;;;;;6245494;28;20404;-74
2021/06/26 14:59:39;;;;;;;4.38;3.97;;;27.30;52.90;;;;;;6245525;28;20207;-75
2021/06/26 15:02:41;;;;;;;4.28;3.70;;;27.50;53.60;;;;;;6245857;28;20084;-74
2021/06/26 15:05:43;;;;;;;4.75;3.72;;;27.50;53.00;;;;;;6246251;28;20514;-75
2021/06/26 15:08:46;;;;;;;3.75;3.42;;;27.80;52.60;;;;;;6245431;28;20084;-74
2021/06/26 15:11:48;;;;;;;4.25;3.60;;;27.80;51.60;;;;;;6246455;28;20128;-74
2021/06/26 15:14:50;;;;;;;3.42;3.13;;;27.60;52.40;;;;;;6237169;28;20526;-74
2021/06/26 15:17:52;;;;;;;5.22;4.72;;;27.50;53.30;;;;;;6222049;28;20046;-74
2021/06/26 15:20:54;;;;;;;4.32;3.85;;;27.50;53.60;;;;;;6246962;28;20132;-75
2021/06/26 15:23:57;;;;;;;4.40;4.00;;;27.40;53.50;;;;;;6250304;28;20072;-74
2021/06/26 15:26:59;;;;;;;4.22;3.92;;;27.20;54.60;;;;;;6240633;28;20136;-74
2021/06/26 15:30:00;;;;;;;4.47;4.07;;;27.20;54.40;;;;;;6225201;28;20111;-75
2021/06/26 15:33:03;;;;;;;4.43;4.03;;;27.30;53.50;;;;;;6226160;28;20523;-75
2021/06/26 15:36:05;;;;;;;4.10;3.78;;;27.60;52.10;;;;;;6244496;28;20581;-75
2021/06/26 15:39:10;;;;;;;5.82;4.07;;;27.90;52.60;;;;;;6238494;28;20045;-75
2021/06/26 15:42:13;;;;;;;4.15;3.78;;;28.20;51.90;;;;;;6229021;28;20041;-75
2021/06/26 15:45:15;;;;;;;5.47;3.90;;;28.50;51.10;;;;;;6231463;28;20049;-75